Terminal Aerodrome Forecast
Issued by NWS

Home | Current Version | Previous Version | Text Only | Print | Product List | Glossary On
Versions: 1 2 3 4 5 6 7 8 9 10 11 12 13 14 15 16 17 18 19 20 21 22 23
983
FTUS46 KLOX 232340
TAFPRB
TAF
KPRB 232340Z 2400/2424 29007KT P6SM SCT040
     FM240500 VRB03KT P6SM SCT120 BKN250
     FM241800 21006KT P6SM BKN100 OVC250
     FM242100 24011KT P6SM VCSH SCT070 OVC100=

USA.gov is the U.S. government's official web portal to all federal, state and local government web resources and services.